Palermo, Italy
Current Conditions -  °F | °C
As of 6:50 PM on Saturday 20 Dec 2014 (Local Time) from LICJ Reporting Station
Scattered Clouds Scattered Clouds  
Wind Chill: 17°   Ceiling: Unl
Heat Index: 17°   Visibility: 6mi
Dew Point: 13°   Wind: 9mph
Humidity: 77%   Direction: 280°W
Pressure: 30.24"   Gusts: NA
Location:  38.12°N, 13.36°E
Report Text: LICJ 201750Z 28008KT 9999 SCT018 SCT024 17/13 Q1024
Loading
Personal Weather Stations






























Interactive Weather Map New forecast layout! Learn more

10-Day Weather Forecast

Advertisements
Track Severe Weather on mobile